La Palma > ESTACION METEOROLÓGICA Los Llanos de Aridane

DATOS ACTUALES Online

Ultima actulizacion 6 minutos

16.6 ºC

Temperatura

73

Humedad (%)

1021.0

Presión (mb)

0

Precipitación (mm)

0 NE

Viento (Km/h)

DATOS DIARIOS

Temperatura últimas 24 horas (ºC)

Humedad últimas 24 horas (%)

Presión atmosférica últimas 24 horas (mb)

Precipitaciones últimas 23 horas (mm)

Viento últimas 24 horas (Km/h)

Hora Temperatura (°C) ºC Precipitación (mm) mm Presión (mb) mb Humedad (%) % Viento (Km/h) km/h
29 - 00:00 16.7 0 1022 72 7.74 E
29 - 01:00 16.4 0 1022 73 4.68 E
29 - 02:00 16.1 0 1021 75 6.3 E
29 - 03:00 16.7 0 1021 74 0 E
29 - 04:00 16.6 0 1021 77 0 E
29 - 05:00 17 0 1021 76 0 E
29 - 06:00 17.2 0 1021 76 0 E
29 - 07:00 17.4 0 1021 76 3.06 E
29 - 08:00 17.4 0 1022 77 0 NE
29 - 09:00 17.6 0 1022 77 3.06 SW
29 - 10:00 18.3 0 1022 70 6.3 W
29 - 11:00 18.7 0 1022 69 3.06 SW
29 - 12:00 19.6 0 1022 66 7.74 SW
29 - 13:00 20.1 0 1022 63 14.04 SW
29 - 14:00 21 0 1021 62 17.28 NW
29 - 15:00 21.7 0 1021 61 4.68 W
29 - 16:00 21.1 0 1021 64 14.04 NW
29 - 17:00 19.9 0 1021 66 14.04 W
29 - 18:00 20.5 0 1021 66 15.66 NW
29 - 19:00 20.3 0 1020 67 4.68 W
29 - 20:00 18.8 0 1021 70 14.04 NW
29 - 21:00 18.3 0 1021 68 0 SW
29 - 22:00 17.8 0 1021 69 0 NE
29 - 23:00 17.7 0 1021 71 0 NE
30 - 00:00 16.6 0 1021 73 0 NE
Apalmet utiliza cookies propias y de terceros para mejorar la usabilidad y la experiencia web. Política de cookies.